Time,TemperatureF,DewpointF,PressureIn,WindDirection,WindDirectionDegrees,WindSpeedMPH,WindSpeedGustMPH,Humidity,HourlyPrecipIn,Conditions,Clouds,dailyrainin,SoftwareType,DateUTC
2013-03-27 00:00:00,38.1,32.0,30.08,WNW,292,0.7,2.8,78,0.00,,---,0.00,VWS V14.01,2013-03-27 04:00:00,
2013-03-27 00:05:00,37.8,31.7,30.08,WNW,292,0.7,1.0,78,0.00,,---,0.00,VWS V14.01,2013-03-27 04:05:00,
2013-03-27 00:10:00,37.6,31.5,30.08,WNW,292,0.3,1.0,78,0.00,,---,0.00,VWS V14.01,2013-03-27 04:10:00,
2013-03-27 00:15:00,37.4,31.3,30.08,West,270,0.3,1.8,78,0.00,,---,0.00,VWS V14.01,2013-03-27 04:15:00,
2013-03-27 00:20:00,37.0,30.9,30.08,West,270,0.0,2.8,78,0.00,,---,0.00,VWS V14.01,2013-03-27 04:20:00,
2013-03-27 00:25:00,36.9,30.8,30.08,WNW,292,0.0,1.0,78,0.00,,---,0.00,VWS V14.01,2013-03-27 04:25:00,
2013-03-27 00:30:00,36.9,30.8,30.09,WNW,292,0.0,0.0,78,0.00,,---,0.00,VWS V14.01,2013-03-27 04:30:00,
2013-03-27 00:35:00,36.7,30.6,30.09,WSW,248,0.3,0.5,78,0.00,,---,0.00,VWS V14.01,2013-03-27 04:35:00,
2013-03-27 00:40:00,36.5,30.4,30.09,WNW,292,0.7,1.8,78,0.00,,---,0.00,VWS V14.01,2013-03-27 04:40:00,
2013-03-27 00:45:00,36.3,30.2,30.09,WNW,292,0.0,0.0,78,0.00,,---,0.00,VWS V14.01,2013-03-27 04:45:00,
2013-03-27 00:50:00,36.0,29.6,30.09,WSW,248,0.0,1.0,77,0.00,,---,0.00,VWS V14.01,2013-03-27 04:50:00,
2013-03-27 00:55:00,36.0,29.6,30.09,West,270,0.0,0.5,77,0.00,,---,0.00,VWS V14.01,2013-03-27 04:55:00,
2013-03-27 01:00:00,35.8,29.8,30.09,West,270,0.0,1.0,78,0.00,,---,0.00,VWS V14.01,2013-03-27 05:00:00,
2013-03-27 01:05:00,35.8,29.8,30.09,West,270,0.0,0.5,78,0.00,,---,0.00,VWS V14.01,2013-03-27 05:05:00,
2013-03-27 01:10:00,35.8,29.8,30.10,West,270,0.0,0.0,78,0.00,,---,0.00,VWS V14.01,2013-03-27 05:10:00,
2013-03-27 01:15:00,35.8,29.8,30.10,WNW,292,0.0,0.0,78,0.00,,---,0.00,VWS V14.01,2013-03-27 05:15:00,
2013-03-27 01:20:00,35.8,29.8,30.10,West,270,0.7,1.0,78,0.00,,---,0.00,VWS V14.01,2013-03-27 05:20:00,
2013-03-27 01:25:00,35.6,29.6,30.10,NW,315,0.3,0.5,78,0.00,,---,0.00,VWS V14.01,2013-03-27 05:25:00,
2013-03-27 01:30:00,35.6,29.6,30.10,NW,315,0.0,0.0,78,0.00,,---,0.00,VWS V14.01,2013-03-27 05:30:00,
2013-03-27 01:35:00,35.4,29.4,30.10,NNW,338,0.0,1.0,78,0.00,,---,0.00,VWS V14.01,2013-03-27 05:35:00,
2013-03-27 01:40:00,35.2,29.2,30.10,NNW,338,0.0,1.0,78,0.00,,---,0.00,VWS V14.01,2013-03-27 05:40:00,
2013-03-27 01:45:00,35.2,29.2,30.10,NNW,338,0.7,1.0,78,0.00,,---,0.00,VWS V14.01,2013-03-27 05:45:00,
2013-03-27 01:50:00,35.2,29.2,30.10,NW,315,1.2,2.8,78,0.00,,---,0.00,VWS V14.01,2013-03-27 05:50:00,
2013-03-27 01:55:00,35.6,29.6,30.10,WNW,292,2.1,3.2,78,0.00,,---,0.00,VWS V14.01,2013-03-27 05:55:00,
2013-03-27 02:00:00,36.0,29.9,30.09,WNW,292,0.0,0.0,78,0.00,,---,0.00,VWS V14.01,2013-03-27 06:00:00,
2013-03-27 02:05:00,36.0,29.6,30.09,NNW,338,2.1,3.2,77,0.00,,---,0.00,VWS V14.01,2013-03-27 06:05:00,
2013-03-27 02:10:00,36.0,29.6,30.09,NW,315,1.5,2.2,77,0.00,,---,0.00,VWS V14.01,2013-03-27 06:10:00,
2013-03-27 02:15:00,36.0,29.6,30.09,NNW,338,4.1,6.2,77,0.00,,---,0.00,VWS V14.01,2013-03-27 06:15:00,
2013-03-27 02:20:00,36.1,29.7,30.09,North,0,1.2,3.2,77,0.00,,---,0.00,VWS V14.01,2013-03-27 06:20:00,
2013-03-27 02:25:00,36.3,29.9,30.09,NNW,338,1.8,4.0,77,0.00,,---,0.00,VWS V14.01,2013-03-27 06:25:00,
2013-03-27 02:30:00,36.5,29.8,30.09,NNW,338,0.0,4.0,76,0.00,,---,0.00,VWS V14.01,2013-03-27 06:30:00,
2013-03-27 02:35:00,36.5,29.8,30.09,NW,315,0.0,0.5,76,0.00,,---,0.00,VWS V14.01,2013-03-27 06:35:00,
2013-03-27 02:40:00,36.3,29.6,30.09,NNE,22,0.0,0.0,76,0.00,,---,0.00,VWS V14.01,2013-03-27 06:40:00,
2013-03-27 02:45:00,36.0,29.0,30.09,NNE,22,0.0,0.0,75,0.00,,---,0.00,VWS V14.01,2013-03-27 06:45:00,
2013-03-27 02:50:00,35.6,28.6,30.09,NNE,22,0.0,0.0,75,0.00,,---,0.00,VWS V14.01,2013-03-27 06:50:00,
2013-03-27 02:55:00,35.2,28.2,30.09,WSW,248,0.0,1.0,75,0.00,,---,0.00,VWS V14.01,2013-03-27 06:55:00,
2013-03-27 03:00:00,34.8,28.0,30.08,WSW,248,0.0,0.0,76,0.00,,---,0.00,VWS V14.01,2013-03-27 07:00:00,
2013-03-27 03:05:00,34.3,27.7,30.08,WSW,248,0.0,0.0,76,0.00,,---,0.00,VWS V14.01,2013-03-27 07:05:00,
2013-03-27 03:10:00,34.1,27.7,30.08,WSW,248,0.0,0.0,77,0.00,,---,0.00,VWS V14.01,2013-03-27 07:10:00,
2013-03-27 03:15:00,33.9,27.8,30.08,West,270,0.0,0.0,78,0.00,,---,0.00,VWS V14.01,2013-03-27 07:15:00,
2013-03-27 03:20:00,33.5,27.4,30.09,West,270,0.0,0.0,78,0.00,,---,0.00,VWS V14.01,2013-03-27 07:20:00,
2013-03-27 03:25:00,33.2,27.1,30.09,West,270,0.0,0.0,78,0.00,,---,0.00,VWS V14.01,2013-03-27 07:25:00,
2013-03-27 03:30:00,33.2,27.5,30.09,West,270,0.0,0.0,79,0.00,,---,0.00,VWS V14.01,2013-03-27 07:30:00,
2013-03-27 03:35:00,32.8,27.4,30.09,West,270,0.0,0.0,80,0.00,,---,0.00,VWS V14.01,2013-03-27 07:35:00,
2013-03-27 03:40:00,32.5,27.1,30.09,West,270,0.0,0.0,80,0.00,,---,0.00,VWS V14.01,2013-03-27 07:40:00,
2013-03-27 03:45:00,32.3,27.2,30.09,West,270,0.0,0.0,81,0.00,,---,0.00,VWS V14.01,2013-03-27 07:45:00,
2013-03-27 03:50:00,32.1,27.3,30.09,West,270,0.0,0.0,82,0.00,,---,0.00,VWS V14.01,2013-03-27 07:50:00,
2013-03-27 03:55:00,31.9,26.8,30.09,West,270,0.0,0.0,81,0.00,,---,0.00,VWS V14.01,2013-03-27 07:55:00,
2013-03-27 04:00:00,31.7,26.3,30.09,West,270,0.0,0.0,80,0.00,,---,0.00,VWS V14.01,2013-03-27 08:00:00,
2013-03-27 04:05:00,31.4,26.0,30.09,West,270,0.0,0.0,80,0.00,,---,0.00,VWS V14.01,2013-03-27 08:05:00,
2013-03-27 04:10:00,31.0,25.6,30.10,West,270,0.0,0.0,80,0.00,,---,0.00,VWS V14.01,2013-03-27 08:10:00,
2013-03-27 04:15:00,30.8,25.8,30.10,West,270,0.0,0.0,81,0.00,,---,0.00,VWS V14.01,2013-03-27 08:15:00,
2013-03-27 04:20:00,30.8,26.4,30.10,West,270,0.0,0.0,83,0.00,,---,0.00,VWS V14.01,2013-03-27 08:20:00,
2013-03-27 04:25:00,30.7,26.3,30.10,West,270,0.0,0.0,83,0.00,,---,0.00,VWS V14.01,2013-03-27 08:25:00,
2013-03-27 04:30:00,30.5,26.1,30.10,West,270,0.0,0.0,83,0.00,,---,0.00,VWS V14.01,2013-03-27 08:30:00,
2013-03-27 04:35:00,30.5,26.1,30.10,West,270,0.0,0.0,83,0.00,,---,0.00,VWS V14.01,2013-03-27 08:35:00,
2013-03-27 04:40:00,30.5,26.1,30.10,West,270,0.0,0.0,83,0.00,,---,0.00,VWS V14.01,2013-03-27 08:40:00,
2013-03-27 04:45:00,30.3,25.9,30.10,West,270,0.0,0.0,83,0.00,,---,0.00,VWS V14.01,2013-03-27 08:45:00,
2013-03-27 04:50:00,30.1,25.7,30.10,West,270,0.0,0.0,83,0.00,,---,0.00,VWS V14.01,2013-03-27 08:50:00,
2013-03-27 04:55:00,29.9,25.5,30.10,West,270,0.0,0.0,83,0.00,,---,0.00,VWS V14.01,2013-03-27 08:55:00,
2013-03-27 05:00:00,29.9,26.1,30.10,West,270,0.0,0.0,85,0.00,,---,0.00,VWS V14.01,2013-03-27 09:00:00,
2013-03-27 05:05:00,29.8,26.0,30.10,West,270,0.0,0.0,85,0.00,,---,0.00,VWS V14.01,2013-03-27 09:05:00,
2013-03-27 05:10:00,29.8,26.0,30.11,West,270,0.0,0.0,85,0.00,,---,0.00,VWS V14.01,2013-03-27 09:10:00,
2013-03-27 05:15:00,29.6,25.8,30.11,West,270,0.0,0.0,85,0.00,,---,0.00,VWS V14.01,2013-03-27 09:15:00,
2013-03-27 05:21:00,29.6,25.8,30.11,West,270,0.0,0.0,85,0.00,,---,0.00,VWS V14.01,2013-03-27 09:21:00,
2013-03-27 05:26:00,29.6,25.8,30.11,West,270,0.0,0.0,85,0.00,,---,0.00,VWS V14.01,2013-03-27 09:26:00,
2013-03-27 05:31:00,29.4,25.6,30.11,West,270,0.0,0.0,85,0.00,,---,0.00,VWS V14.01,2013-03-27 09:31:00,
2013-03-27 05:36:00,29.4,25.6,30.11,West,270,0.0,0.0,85,0.00,,---,0.00,VWS V14.01,2013-03-27 09:36:00,
2013-03-27 05:41:00,29.2,25.4,30.11,West,270,0.0,0.0,85,0.00,,---,0.00,VWS V14.01,2013-03-27 09:41:00,
2013-03-27 05:46:00,29.0,25.2,30.11,West,270,0.0,0.0,85,0.00,,---,0.00,VWS V14.01,2013-03-27 09:46:00,
2013-03-27 05:51:00,28.9,25.1,30.11,West,270,0.0,0.0,85,0.00,,---,0.00,VWS V14.01,2013-03-27 09:51:00,
2013-03-27 05:56:00,28.9,25.1,30.12,West,270,0.0,0.0,85,0.00,,---,0.00,VWS V14.01,2013-03-27 09:56:00,
2013-03-27 06:01:00,28.7,24.9,30.12,West,270,0.0,0.0,85,0.00,,---,0.00,VWS V14.01,2013-03-27 10:01:00,
2013-03-27 06:06:00,28.7,24.9,30.12,West,270,0.3,0.5,85,0.00,,---,0.00,VWS V14.01,2013-03-27 10:06:00,
2013-03-27 06:11:00,28.5,24.7,30.12,West,270,0.0,0.0,85,0.00,,---,0.00,VWS V14.01,2013-03-27 10:11:00,
2013-03-27 06:16:00,28.5,24.7,30.12,West,270,0.0,0.0,85,0.00,,---,0.00,VWS V14.01,2013-03-27 10:16:00,
2013-03-27 06:21:00,28.3,24.8,30.12,West,270,0.0,0.0,87,0.00,,---,0.00,VWS V14.01,2013-03-27 10:21:00,
2013-03-27 06:26:00,28.3,24.8,30.13,West,270,0.0,0.0,87,0.00,,---,0.00,VWS V14.01,2013-03-27 10:26:00,
2013-03-27 06:31:00,28.3,24.8,30.13,West,270,0.0,0.0,87,0.00,,---,0.00,VWS V14.01,2013-03-27 10:31:00,
2013-03-27 06:36:00,28.3,24.8,30.13,West,270,0.0,0.0,87,0.00,,---,0.00,VWS V14.01,2013-03-27 10:36:00,
2013-03-27 06:41:00,28.3,25.1,30.13,West,270,0.0,0.0,88,0.00,,---,0.00,VWS V14.01,2013-03-27 10:41:00,
2013-03-27 06:46:00,28.1,24.9,30.14,West,270,0.0,0.0,88,0.00,,---,0.00,VWS V14.01,2013-03-27 10:46:00,
2013-03-27 06:51:00,28.1,24.9,30.13,West,270,0.0,0.0,88,0.00,,---,0.00,VWS V14.01,2013-03-27 10:51:00,
2013-03-27 06:56:00,28.1,24.9,30.13,West,270,0.0,0.0,88,0.00,,---,0.00,VWS V14.01,2013-03-27 10:56:00,
2013-03-27 07:01:00,28.1,24.9,30.14,West,270,0.0,0.0,88,0.00,,---,0.00,VWS V14.01,2013-03-27 11:01:00,
2013-03-27 07:06:00,28.1,25.2,30.14,West,270,0.0,0.0,89,0.00,,---,0.00,VWS V14.01,2013-03-27 11:06:00,
2013-03-27 07:11:00,28.1,25.2,30.14,West,270,0.0,0.0,89,0.00,,---,0.00,VWS V14.01,2013-03-27 11:11:00,
2013-03-27 07:16:00,28.1,25.2,30.14,West,270,0.0,0.0,89,0.00,,---,0.00,VWS V14.01,2013-03-27 11:16:00,
2013-03-27 07:21:00,28.0,25.1,30.14,West,270,0.0,0.0,89,0.00,,---,0.00,VWS V14.01,2013-03-27 11:21:00,
2013-03-27 07:26:00,27.8,24.6,30.14,West,270,0.0,0.0,88,0.00,,---,0.00,VWS V14.01,2013-03-27 11:26:00,
2013-03-27 07:31:00,27.8,24.3,30.15,West,270,0.0,0.0,87,0.00,,---,0.00,VWS V14.01,2013-03-27 11:31:00,
2013-03-27 07:36:00,27.6,24.4,30.15,WNW,292,0.3,0.5,88,0.00,,---,0.00,VWS V14.01,2013-03-27 11:36:00,
2013-03-27 07:41:00,27.8,24.6,30.15,WNW,292,0.0,0.0,88,0.00,,---,0.00,VWS V14.01,2013-03-27 11:41:00,
2013-03-27 07:46:00,27.8,24.6,30.15,WNW,292,0.3,0.5,88,0.00,,---,0.00,VWS V14.01,2013-03-27 11:46:00,
2013-03-27 07:51:00,28.0,25.1,30.16,WNW,292,0.0,0.0,89,0.00,,---,0.00,VWS V14.01,2013-03-27 11:51:00,
2013-03-27 07:56:00,28.1,25.2,30.16,WNW,292,0.0,0.0,89,0.00,,---,0.00,VWS V14.01,2013-03-27 11:56:00,
2013-03-27 08:02:00,28.5,25.6,30.16,WNW,292,0.0,1.8,89,0.00,,---,0.00,VWS V14.01,2013-03-27 12:02:00,
2013-03-27 08:07:00,28.9,26.0,30.17,SW,225,2.6,4.0,89,0.00,,---,0.00,VWS V14.01,2013-03-27 12:07:00,
2013-03-27 08:12:00,29.6,26.6,30.17,NE,45,1.8,2.8,89,0.00,,---,0.00,VWS V14.01,2013-03-27 12:12:00,
2013-03-27 08:17:00,30.5,27.8,30.16,West,270,0.3,1.8,90,0.00,,---,0.00,VWS V14.01,2013-03-27 12:17:00,
2013-03-27 08:22:00,31.7,28.7,30.16,WNW,292,1.8,2.8,89,0.00,,---,0.00,VWS V14.01,2013-03-27 12:22:00,
2013-03-27 08:27:00,33.0,29.4,30.16,NNW,338,2.1,3.2,87,0.00,,---,0.00,VWS V14.01,2013-03-27 12:27:00,
2013-03-27 08:32:00,34.2,30.1,30.17,West,270,1.5,11.2,84,0.00,,---,0.00,VWS V14.01,2013-03-27 12:32:00,
2013-03-27 08:37:00,35.2,31.0,30.17,WNW,292,1.8,2.8,84,0.00,,---,0.00,VWS V14.01,2013-03-27 12:37:00,
2013-03-27 08:42:00,36.0,31.2,30.17,North,0,8.4,12.8,82,0.00,,---,0.00,VWS V14.01,2013-03-27 12:42:00,
2013-03-27 08:47:00,36.7,31.6,30.16,WSW,248,1.2,1.8,81,0.00,,---,0.00,VWS V14.01,2013-03-27 12:47:00,
2013-03-27 08:52:00,37.6,32.4,30.17,NNW,338,2.6,5.5,81,0.00,,---,0.00,VWS V14.01,2013-03-27 12:52:00,
2013-03-27 08:57:00,38.5,32.7,30.17,NNW,338,1.8,2.8,79,0.00,,---,0.00,VWS V14.01,2013-03-27 12:57:00,
2013-03-27 09:02:00,39.2,32.4,30.17,North,0,4.1,7.8,76,0.00,,---,0.00,VWS V14.01,2013-03-27 13:02:00,
2013-03-27 09:07:00,39.7,32.5,30.17,WNW,292,1.8,10.0,75,0.00,,---,0.00,VWS V14.01,2013-03-27 13:07:00,
2013-03-27 09:12:00,40.3,32.4,30.17,North,0,1.8,9.5,73,0.00,,---,0.00,VWS V14.01,2013-03-27 13:12:00,
2013-03-27 09:17:00,40.8,32.9,30.17,NNW,338,5.1,11.8,73,0.00,,---,0.00,VWS V14.01,2013-03-27 13:17:00,
2013-03-27 09:23:00,41.2,32.2,30.17,NNW,338,4.5,6.8,70,0.00,,---,0.00,VWS V14.01,2013-03-27 13:23:00,
2013-03-27 09:28:00,41.7,33.0,30.17,NNW,338,1.2,7.2,71,0.00,,---,0.00,VWS V14.01,2013-03-27 13:28:00,
2013-03-27 09:33:00,42.1,32.3,30.17,NW,315,2.1,4.5,68,0.00,,---,0.00,VWS V14.01,2013-03-27 13:33:00,
2013-03-27 09:38:00,42.6,33.1,30.18,NNW,338,6.6,10.0,69,0.00,,---,0.00,VWS V14.01,2013-03-27 13:38:00,
2013-03-27 09:43:00,43.3,33.8,30.18,NNE,22,3.6,8.5,69,0.00,,---,0.00,VWS V14.01,2013-03-27 13:43:00,
2013-03-27 09:48:00,43.5,32.8,30.18,WNW,292,3.6,10.0,66,0.00,,---,0.00,VWS V14.01,2013-03-27 13:48:00,
2013-03-27 09:53:00,43.9,32.8,30.18,North,0,8.9,13.5,65,0.00,,---,0.00,VWS V14.01,2013-03-27 13:53:00,
2013-03-27 09:58:00,44.2,32.7,30.18,North,0,10.4,19.0,64,0.00,,---,0.00,VWS V14.01,2013-03-27 13:58:00,
2013-03-27 10:03:00,44.5,33.1,30.18,NNW,338,3.0,6.8,64,0.00,,---,0.00,VWS V14.01,2013-03-27 14:03:00,
2013-03-27 10:08:00,45.0,33.5,30.18,NNE,22,3.0,15.0,64,0.00,,---,0.00,VWS V14.01,2013-03-27 14:08:00,
2013-03-27 10:13:00,45.4,33.5,30.18,NW,315,6.3,9.5,63,0.00,,---,0.00,VWS V14.01,2013-03-27 14:13:00,
2013-03-27 10:18:00,45.8,33.5,30.18,North,0,15.2,23.0,62,0.00,,---,0.00,VWS V14.01,2013-03-27 14:18:00,
2013-03-27 10:23:00,46.1,32.9,30.18,North,0,6.6,11.2,60,0.00,,---,0.00,VWS V14.01,2013-03-27 14:23:00,
2013-03-27 10:28:00,46.7,33.5,30.17,North,0,7.8,11.8,60,0.00,,---,0.00,VWS V14.01,2013-03-27 14:28:00,
2013-03-27 10:33:00,46.8,31.8,30.17,NNW,338,1.8,7.8,56,0.00,,---,0.00,VWS V14.01,2013-03-27 14:33:00,
2013-03-27 10:38:00,47.2,30.8,30.18,NNW,338,4.1,6.2,53,0.00,,---,0.00,VWS V14.01,2013-03-27 14:38:00,
2013-03-27 10:43:00,47.4,31.4,30.18,WSW,248,6.6,10.0,54,0.00,,---,0.00,VWS V14.01,2013-03-27 14:43:00,
2013-03-27 10:48:00,47.9,31.4,30.18,North,0,8.9,13.5,53,0.00,,---,0.00,VWS V14.01,2013-03-27 14:48:00,
2013-03-27 10:53:00,47.9,32.4,30.17,North,0,6.6,10.0,55,0.00,,---,0.00,VWS V14.01,2013-03-27 14:53:00,
2013-03-27 10:58:00,48.1,31.1,30.17,North,0,5.6,10.0,52,0.00,,---,0.00,VWS V14.01,2013-03-27 14:58:00,
2013-03-27 11:03:00,48.3,30.8,30.17,NW,315,3.0,7.2,50,0.00,,---,0.00,VWS V14.01,2013-03-27 15:03:00,
2013-03-27 11:08:00,49.0,31.9,30.17,NNE,22,4.8,7.2,52,0.00,,---,0.00,VWS V14.01,2013-03-27 15:08:00,
2013-03-27 11:13:00,49.4,32.3,30.17,NNW,338,3.0,5.0,52,0.00,,---,0.00,VWS V14.01,2013-03-27 15:13:00,
2013-03-27 11:18:00,49.2,31.1,30.17,North,0,2.6,8.5,49,0.00,,---,0.00,VWS V14.01,2013-03-27 15:18:00,
2013-03-27 11:23:00,49.4,31.3,30.17,SW,225,3.0,10.8,49,0.00,,---,0.00,VWS V14.01,2013-03-27 15:23:00,
2013-03-27 11:28:00,49.5,32.4,30.16,WNW,292,4.8,7.2,52,0.00,,---,0.00,VWS V14.01,2013-03-27 15:28:00,
2013-03-27 11:33:00,50.3,32.6,30.16,WNW,292,3.6,5.5,50,0.00,,---,0.00,VWS V14.01,2013-03-27 15:33:00,
2013-03-27 11:38:00,49.9,31.2,30.16,NE,45,1.8,10.8,48,0.00,,---,0.00,VWS V14.01,2013-03-27 15:38:00,
2013-03-27 11:43:00,50.3,32.6,30.17,NNW,338,1.8,7.2,50,0.00,,---,0.00,VWS V14.01,2013-03-27 15:43:00,
2013-03-27 11:48:00,51.2,32.9,30.17,NNW,338,3.6,9.0,49,0.00,,---,0.00,VWS V14.01,2013-03-27 15:48:00,
2013-03-27 11:53:00,51.2,31.3,30.17,West,270,4.1,7.8,46,0.00,,---,0.00,VWS V14.01,2013-03-27 15:53:00,
2013-03-27 11:58:00,51.7,32.3,30.16,NNW,338,4.1,6.2,47,0.00,,---,0.00,VWS V14.01,2013-03-27 15:58:00,
2013-03-27 12:03:00,51.9,32.0,30.16,NNW,338,4.5,8.5,46,0.00,,---,0.00,VWS V14.01,2013-03-27 16:03:00,
2013-03-27 12:08:00,51.7,30.1,30.16,WNW,292,8.4,12.8,43,0.00,,---,0.00,VWS V14.01,2013-03-27 16:08:00,
2013-03-27 12:13:00,51.7,31.8,30.16,North,0,1.8,9.5,46,0.00,,---,0.00,VWS V14.01,2013-03-27 16:13:00,
2013-03-27 12:18:00,52.4,30.7,30.16,WSW,248,3.0,12.8,43,0.00,,---,0.00,VWS V14.01,2013-03-27 16:18:00,
2013-03-27 12:23:00,52.6,32.6,30.15,NNW,338,7.4,11.2,46,0.00,,---,0.00,VWS V14.01,2013-03-27 16:23:00,
2013-03-27 12:28:00,52.6,30.3,30.16,NW,315,7.1,10.8,42,0.00,,---,0.00,VWS V14.01,2013-03-27 16:28:00,
2013-03-27 12:33:00,52.8,31.6,30.15,NW,315,4.8,7.2,44,0.00,,---,0.00,VWS V14.01,2013-03-27 16:33:00,
2013-03-27 12:38:00,53.0,33.0,30.15,NW,315,8.1,12.2,46,0.00,,---,0.00,VWS V14.01,2013-03-27 16:38:00,
2013-03-27 12:43:00,53.1,31.3,30.15,NW,315,6.3,19.0,43,0.00,,---,0.00,VWS V14.01,2013-03-27 16:43:00,
2013-03-27 12:48:00,53.3,32.7,30.15,North,0,5.9,11.8,45,0.00,,---,0.00,VWS V14.01,2013-03-27 16:48:00,
2013-03-27 12:53:00,53.5,32.3,30.15,WNW,292,4.8,7.2,44,0.00,,---,0.00,VWS V14.01,2013-03-27 16:53:00,
2013-03-27 12:58:00,54.2,31.1,30.15,North,0,8.9,13.5,41,0.00,,---,0.00,VWS V14.01,2013-03-27 16:58:00,
2013-03-27 13:03:00,53.9,30.8,30.15,West,270,4.1,6.2,41,0.00,,---,0.00,VWS V14.01,2013-03-27 17:03:00,
2013-03-27 13:08:00,54.0,32.1,30.15,NNE,22,1.8,6.8,43,0.00,,---,0.00,VWS V14.01,2013-03-27 17:08:00,
2013-03-27 13:13:00,54.3,32.5,30.14,NW,315,3.6,5.5,43,0.00,,---,0.00,VWS V14.01,2013-03-27 17:13:00,
2013-03-27 13:18:00,54.8,32.3,30.14,WNW,292,3.6,5.5,42,0.00,,---,0.00,VWS V14.01,2013-03-27 17:18:00,
2013-03-27 13:23:00,55.2,32.1,30.14,NNW,338,5.6,16.2,41,0.00,,---,0.00,VWS V14.01,2013-03-27 17:23:00,
2013-03-27 13:28:00,54.8,31.6,30.14,NW,315,3.6,7.2,41,0.00,,---,0.00,VWS V14.01,2013-03-27 17:28:00,
2013-03-27 13:33:00,55.0,31.9,30.14,North,0,6.3,9.5,41,0.00,,---,0.00,VWS V14.01,2013-03-27 17:33:00,
2013-03-27 13:38:00,55.6,33.1,30.13,NNW,338,3.0,9.5,42,0.00,,---,0.00,VWS V14.01,2013-03-27 17:38:00,
2013-03-27 13:43:00,55.6,31.8,30.13,West,270,9.6,14.5,40,0.00,,---,0.00,VWS V14.01,2013-03-27 17:43:00,
2013-03-27 13:48:00,55.7,32.5,30.13,NNW,338,3.0,4.5,41,0.00,,---,0.00,VWS V14.01,2013-03-27 17:48:00,
2013-03-27 13:53:00,56.1,32.9,30.13,NW,315,1.8,24.5,41,0.00,,---,0.00,VWS V14.01,2013-03-27 17:53:00,
2013-03-27 13:58:00,56.8,32.2,30.13,West,270,7.1,13.5,39,0.00,,---,0.00,VWS V14.01,2013-03-27 17:58:00,
2013-03-27 14:03:00,57.0,33.1,30.13,NNW,338,7.4,11.2,40,0.00,,---,0.00,VWS V14.01,2013-03-27 18:03:00,
2013-03-27 14:08:00,57.0,31.8,30.12,West,270,3.0,7.2,38,0.00,,---,0.00,VWS V14.01,2013-03-27 18:08:00,
2013-03-27 14:13:00,57.0,33.7,30.12,NNE,22,9.2,14.0,41,0.00,,---,0.00,VWS V14.01,2013-03-27 18:13:00,
2013-03-27 14:18:00,56.8,30.9,30.12,NNE,22,8.4,12.8,37,0.00,,---,0.00,VWS V14.01,2013-03-27 18:18:00,
2013-03-27 14:23:00,57.0,31.8,30.12,North,0,3.6,12.8,38,0.00,,---,0.00,VWS V14.01,2013-03-27 18:23:00,
2013-03-27 14:28:00,57.4,32.1,30.12,West,270,5.6,8.5,38,0.00,,---,0.00,VWS V14.01,2013-03-27 18:28:00,
2013-03-27 14:33:00,57.2,31.3,30.11,North,0,4.8,7.2,37,0.00,,---,0.00,VWS V14.01,2013-03-27 18:33:00,
2013-03-27 14:38:00,56.8,30.9,30.11,NW,315,3.6,10.0,37,0.00,,---,0.00,VWS V14.01,2013-03-27 18:38:00,
2013-03-27 14:43:00,56.6,30.7,30.11,West,270,8.4,15.0,37,0.00,,---,0.00,VWS V14.01,2013-03-27 18:43:00,
2013-03-27 14:48:00,56.8,31.6,30.11,North,0,4.8,7.2,38,0.00,,---,0.00,VWS V14.01,2013-03-27 18:48:00,
2013-03-27 14:53:00,57.4,29.3,30.11,NW,315,7.8,11.8,34,0.00,,---,0.00,VWS V14.01,2013-03-27 18:53:00,
2013-03-27 14:58:00,57.7,32.4,30.11,North,0,5.1,7.8,38,0.00,,---,0.00,VWS V14.01,2013-03-27 18:58:00,
2013-03-27 15:03:00,58.1,32.7,30.11,West,270,5.9,9.0,38,0.00,,---,0.00,VWS V14.01,2013-03-27 19:03:00,
2013-03-27 15:08:00,57.9,31.9,30.10,NNW,338,1.8,10.8,37,0.00,,---,0.00,VWS V14.01,2013-03-27 19:08:00,
2013-03-27 15:13:00,58.1,31.4,30.10,NNW,338,4.5,9.0,36,0.00,,---,0.00,VWS V14.01,2013-03-27 19:13:00,
2013-03-27 15:18:00,58.3,30.8,30.10,NNW,338,9.9,15.0,35,0.00,,---,0.00,VWS V14.01,2013-03-27 19:18:00,
2013-03-27 15:23:00,58.1,30.6,30.10,WNW,292,6.3,15.0,35,0.00,,---,0.00,VWS V14.01,2013-03-27 19:23:00,
2013-03-27 15:28:00,57.5,30.1,30.10,NNW,338,3.0,11.8,35,0.00,,---,0.00,VWS V14.01,2013-03-27 19:28:00,
2013-03-27 15:33:00,57.7,31.0,30.10,NNE,22,4.8,7.2,36,0.00,,---,0.00,VWS V14.01,2013-03-27 19:33:00,
2013-03-27 15:38:00,57.5,30.8,30.10,West,270,3.6,11.2,36,0.00,,---,0.00,VWS V14.01,2013-03-27 19:38:00,
2013-03-27 15:43:00,57.7,30.3,30.10,NW,315,4.5,6.8,35,0.00,,---,0.00,VWS V14.01,2013-03-27 19:43:00,
2013-03-27 15:48:00,57.7,30.3,30.10,WNW,292,6.3,9.5,35,0.00,,---,0.00,VWS V14.01,2013-03-27 19:48:00,
2013-03-27 15:53:00,57.9,31.9,30.10,North,0,7.1,10.8,37,0.00,,---,0.00,VWS V14.01,2013-03-27 19:53:00,
2013-03-27 15:58:00,58.1,30.6,30.10,NNE,22,3.3,19.5,35,0.00,,---,0.00,VWS V14.01,2013-03-27 19:58:00,
2013-03-27 16:03:00,58.1,31.4,30.10,NNE,22,3.3,5.0,36,0.00,,---,0.00,VWS V14.01,2013-03-27 20:03:00,
2013-03-27 16:08:00,57.7,30.3,30.10,West,270,7.8,11.8,35,0.00,,---,0.00,VWS V14.01,2013-03-27 20:08:00,
2013-03-27 16:13:00,57.7,31.7,30.09,NW,315,5.1,7.8,37,0.00,,---,0.00,VWS V14.01,2013-03-27 20:13:00,
2013-03-27 16:18:00,58.1,32.0,30.09,WNW,292,3.0,11.8,37,0.00,,---,0.00,VWS V14.01,2013-03-27 20:18:00,
2013-03-27 16:23:00,58.1,29.9,30.10,North,0,4.1,11.8,34,0.00,,---,0.00,VWS V14.01,2013-03-27 20:23:00,
2013-03-27 16:28:00,57.7,29.6,30.09,WNW,292,4.5,6.8,34,0.00,,---,0.00,VWS V14.01,2013-03-27 20:28:00,
2013-03-27 16:33:00,57.7,29.6,30.09,NNW,338,6.3,9.5,34,0.00,,---,0.00,VWS V14.01,2013-03-27 20:33:00,
2013-03-27 16:38:00,57.5,29.4,30.09,NNW,338,6.3,11.8,34,0.00,,---,0.00,VWS V14.01,2013-03-27 20:38:00,
2013-03-27 16:43:00,57.4,30.0,30.10,NW,315,1.5,9.5,35,0.00,,---,0.00,VWS V14.01,2013-03-27 20:43:00,
2013-03-27 16:48:00,57.4,30.0,30.09,WNW,292,4.1,6.2,35,0.00,,---,0.00,VWS V14.01,2013-03-27 20:48:00,
2013-03-27 16:53:00,57.4,28.5,30.10,North,0,4.1,6.2,33,0.00,,---,0.00,VWS V14.01,2013-03-27 20:53:00,
2013-03-27 16:58:00,57.4,29.3,30.10,NNE,22,7.8,11.8,34,0.00,,---,0.00,VWS V14.01,2013-03-27 20:58:00,
2013-03-27 17:03:00,57.0,28.9,30.10,North,0,4.1,10.0,34,0.00,,---,0.00,VWS V14.01,2013-03-27 21:03:00,
2013-03-27 17:08:00,57.0,28.9,30.10,WNW,292,2.6,4.0,34,0.00,,---,0.00,VWS V14.01,2013-03-27 21:08:00,
2013-03-27 17:13:00,57.0,29.7,30.10,West,270,4.5,6.8,35,0.00,,---,0.00,VWS V14.01,2013-03-27 21:13:00,
2013-03-27 17:18:00,56.8,28.0,30.10,West,270,6.6,11.8,33,0.00,,---,0.00,VWS V14.01,2013-03-27 21:18:00,
2013-03-27 17:23:00,56.8,29.5,30.10,SW,225,3.6,5.5,35,0.00,,---,0.00,VWS V14.01,2013-03-27 21:23:00,
2013-03-27 17:28:00,57.4,31.4,30.10,NNW,338,2.6,7.2,37,0.00,,---,0.00,VWS V14.01,2013-03-27 21:28:00,
2013-03-27 17:33:00,57.4,30.0,30.10,North,0,10.7,16.2,35,0.00,,---,0.00,VWS V14.01,2013-03-27 21:33:00,
2013-03-27 17:38:00,56.6,27.9,30.10,West,270,5.6,11.8,33,0.00,,---,0.00,VWS V14.01,2013-03-27 21:38:00,
2013-03-27 17:43:00,56.5,29.2,30.11,West,270,5.6,8.5,35,0.00,,---,0.00,VWS V14.01,2013-03-27 21:43:00,
2013-03-27 17:48:00,55.9,28.0,30.11,NW,315,7.8,11.8,34,0.00,,---,0.00,VWS V14.01,2013-03-27 21:48:00,
2013-03-27 17:53:00,55.6,28.5,30.11,North,0,5.6,10.0,35,0.00,,---,0.00,VWS V14.01,2013-03-27 21:53:00,
2013-03-27 17:58:00,55.6,29.2,30.11,NW,315,3.3,8.5,36,0.00,,---,0.00,VWS V14.01,2013-03-27 21:58:00,
2013-03-27 18:03:00,55.6,29.9,30.11,North,0,2.1,6.2,37,0.00,,---,0.00,VWS V14.01,2013-03-27 22:03:00,
2013-03-27 18:08:00,55.4,29.0,30.11,NNW,338,7.4,12.2,36,0.00,,---,0.00,VWS V14.01,2013-03-27 22:08:00,
2013-03-27 18:13:00,55.2,30.2,30.11,WSW,248,2.6,11.2,38,0.00,,---,0.00,VWS V14.01,2013-03-27 22:13:00,
2013-03-27 18:19:00,55.0,29.3,30.11,North,0,3.3,5.0,37,0.00,,---,0.00,VWS V14.01,2013-03-27 22:19:00,
2013-03-27 18:24:00,54.8,29.1,30.11,WNW,292,3.0,4.5,37,0.00,,---,0.00,VWS V14.01,2013-03-27 22:24:00,
2013-03-27 18:29:00,53.9,28.9,30.11,NNW,338,3.0,6.8,38,0.00,,---,0.00,VWS V14.01,2013-03-27 22:29:00,
2013-03-27 18:34:00,53.1,28.9,30.11,NNW,338,2.6,4.5,39,0.00,,---,0.00,VWS V14.01,2013-03-27 22:34:00,
2013-03-27 18:39:00,52.8,28.6,30.11,West,270,3.6,9.0,39,0.00,,---,0.00,VWS V14.01,2013-03-27 22:39:00,
2013-03-27 18:44:00,52.2,28.1,30.12,North,0,8.9,13.5,39,0.00,,---,0.00,VWS V14.01,2013-03-27 22:44:00,
2013-03-27 18:49:00,51.7,27.6,30.12,NNW,338,3.0,9.5,39,0.00,,---,0.00,VWS V14.01,2013-03-27 22:49:00,
2013-03-27 18:54:00,51.5,28.1,30.12,NNW,338,1.8,8.5,40,0.00,,---,0.00,VWS V14.01,2013-03-27 22:54:00,
2013-03-27 18:59:00,51.3,28.5,30.12,NNW,338,4.1,6.2,41,0.00,,---,0.00,VWS V14.01,2013-03-27 22:59:00,
2013-03-27 19:04:00,51.0,28.9,30.12,NNW,338,1.8,2.8,42,0.00,,---,0.00,VWS V14.01,2013-03-27 23:04:00,
2013-03-27 19:09:00,50.4,28.3,30.12,North,0,1.5,6.2,42,0.00,,---,0.00,VWS V14.01,2013-03-27 23:09:00,
2013-03-27 19:14:00,50.1,28.0,30.12,North,0,4.1,8.5,42,0.00,,---,0.00,VWS V14.01,2013-03-27 23:14:00,
2013-03-27 19:19:00,49.7,27.7,30.12,West,270,4.1,6.2,42,0.00,,---,0.00,VWS V14.01,2013-03-27 23:19:00,
2013-03-27 19:24:00,49.2,27.2,30.12,North,0,3.0,6.2,42,0.00,,---,0.00,VWS V14.01,2013-03-27 23:24:00,
2013-03-27 19:29:00,48.8,27.5,30.13,NW,315,3.3,6.8,43,0.00,,---,0.00,VWS V14.01,2013-03-27 23:29:00,
2013-03-27 19:34:00,48.5,27.2,30.13,NNW,338,0.7,2.2,43,0.00,,---,0.00,VWS V14.01,2013-03-27 23:34:00,
2013-03-27 19:39:00,48.1,27.4,30.13,NNE,22,0.7,1.8,44,0.00,,---,0.00,VWS V14.01,2013-03-27 23:39:00,
2013-03-27 19:44:00,47.7,27.6,30.13,NW,315,1.2,4.5,45,0.00,,---,0.00,VWS V14.01,2013-03-27 23:44:00,
2013-03-27 19:49:00,47.2,27.1,30.14,NW,315,0.7,2.8,45,0.00,,---,0.00,VWS V14.01,2013-03-27 23:49:00,
2013-03-27 19:54:00,46.8,26.8,30.14,NNW,338,3.0,6.2,45,0.00,,---,0.00,VWS V14.01,2013-03-27 23:54:00,
2013-03-27 19:59:00,46.7,26.7,30.14,North,0,0.7,6.2,45,0.00,,---,0.00,VWS V14.01,2013-03-27 23:59:00,
2013-03-27 20:04:00,46.7,27.2,30.14,NNW,338,2.6,4.5,46,0.00,,---,0.00,VWS V14.01,2013-03-28 00:04:00,
2013-03-27 20:09:00,46.3,26.9,30.14,North,0,1.8,4.0,46,0.00,,---,0.00,VWS V14.01,2013-03-28 00:09:00,
2013-03-27 20:14:00,45.9,26.5,30.15,NNW,338,1.8,3.2,46,0.00,,---,0.00,VWS V14.01,2013-03-28 00:14:00,
2013-03-27 20:19:00,45.8,27.0,30.15,NNW,338,0.7,2.2,47,0.00,,---,0.00,VWS V14.01,2013-03-28 00:19:00,
2013-03-27 20:24:00,45.4,26.6,30.16,NNW,338,3.0,6.2,47,0.00,,---,0.00,VWS V14.01,2013-03-28 00:24:00,
2013-03-27 20:29:00,45.4,26.6,30.16,NNW,338,1.2,8.5,47,0.00,,---,0.00,VWS V14.01,2013-03-28 00:29:00,
2013-03-27 20:34:00,45.2,26.4,30.16,North,0,0.7,6.2,47,0.00,,---,0.00,VWS V14.01,2013-03-28 00:34:00,
2013-03-27 20:39:00,45.0,26.1,30.16,NNW,338,1.5,4.5,47,0.00,,---,0.00,VWS V14.01,2013-03-28 00:39:00,
2013-03-27 20:44:00,44.5,26.3,30.16,NNW,338,1.8,2.8,48,0.00,,---,0.00,VWS V14.01,2013-03-28 00:44:00,
2013-03-27 20:49:00,44.3,26.1,30.16,NW,315,0.7,2.8,48,0.00,,---,0.00,VWS V14.01,2013-03-28 00:49:00,
2013-03-27 20:54:00,44.2,25.9,30.17,West,270,1.2,4.0,48,0.00,,---,0.00,VWS V14.01,2013-03-28 00:54:00,
2013-03-27 20:59:00,44.2,25.9,30.17,NNW,338,1.2,12.2,48,0.00,,---,0.00,VWS V14.01,2013-03-28 00:59:00,
2013-03-27 21:04:00,44.1,26.4,30.17,West,270,1.5,4.5,49,0.00,,---,0.00,VWS V14.01,2013-03-28 01:04:00,
2013-03-27 21:09:00,43.9,25.7,30.17,NNW,338,3.0,4.5,48,0.00,,---,0.00,VWS V14.01,2013-03-28 01:09:00,
2013-03-27 21:14:00,43.9,25.7,30.17,NNW,338,3.0,7.8,48,0.00,,---,0.00,VWS V14.01,2013-03-28 01:14:00,
2013-03-27 21:19:00,43.9,25.7,30.18,NNW,338,1.2,2.2,48,0.00,,---,0.00,VWS V14.01,2013-03-28 01:19:00,
2013-03-27 21:24:00,43.9,26.2,30.18,NNW,338,1.8,2.8,49,0.00,,---,0.00,VWS V14.01,2013-03-28 01:24:00,
2013-03-27 21:29:00,43.5,25.8,30.18,North,0,0.3,4.0,49,0.00,,---,0.00,VWS V14.01,2013-03-28 01:29:00,
2013-03-27 21:34:00,43.3,25.6,30.18,North,0,1.2,2.8,49,0.00,,---,0.00,VWS V14.01,2013-03-28 01:34:00,
2013-03-27 21:39:00,43.3,25.6,30.19,NNW,338,0.7,3.2,49,0.00,,---,0.00,VWS V14.01,2013-03-28 01:39:00,
2013-03-27 21:44:00,43.2,25.5,30.19,NNW,338,1.5,5.0,49,0.00,,---,0.00,VWS V14.01,2013-03-28 01:44:00,
2013-03-27 21:49:00,43.2,25.5,30.19,NNW,338,0.0,2.2,49,0.00,,---,0.00,VWS V14.01,2013-03-28 01:49:00,
2013-03-27 21:54:00,43.0,25.4,30.19,NW,315,3.3,5.0,49,0.00,,---,0.00,VWS V14.01,2013-03-28 01:54:00,
2013-03-27 21:59:00,42.8,25.2,30.19,NNW,338,1.5,2.2,49,0.00,,---,0.00,VWS V14.01,2013-03-28 01:59:00,
2013-03-27 22:04:00,42.4,25.3,30.19,North,0,1.5,2.8,50,0.00,,---,0.00,VWS V14.01,2013-03-28 02:04:00,
2013-03-27 22:09:00,42.4,25.3,30.19,North,0,1.8,4.5,50,0.00,,---,0.00,VWS V14.01,2013-03-28 02:09:00,
2013-03-27 22:14:00,42.4,25.3,30.19,NNW,338,0.7,2.8,50,0.00,,---,0.00,VWS V14.01,2013-03-28 02:14:00,
2013-03-27 22:19:00,42.3,25.2,30.19,NNW,338,0.3,1.8,50,0.00,,---,0.00,VWS V14.01,2013-03-28 02:19:00,
2013-03-27 22:24:00,42.1,25.0,30.19,North,0,0.0,1.0,50,0.00,,---,0.00,VWS V14.01,2013-03-28 02:24:00,
2013-03-27 22:29:00,41.9,24.8,30.20,NNW,338,0.7,4.5,50,0.00,,---,0.00,VWS V14.01,2013-03-28 02:29:00,
2013-03-27 22:34:00,41.9,24.8,30.19,North,0,0.3,2.2,50,0.00,,---,0.00,VWS V14.01,2013-03-28 02:34:00,
2013-03-27 22:39:00,41.7,24.6,30.19,NNW,338,0.0,0.5,50,0.00,,---,0.00,VWS V14.01,2013-03-28 02:39:00,
2013-03-27 22:44:00,41.4,24.4,30.19,NNW,338,4.5,6.8,50,0.00,,---,0.00,VWS V14.01,2013-03-28 02:44:00,
2013-03-27 22:49:00,41.4,24.4,30.19,NNW,338,0.7,2.2,50,0.00,,---,0.00,VWS V14.01,2013-03-28 02:49:00,
2013-03-27 22:54:00,41.2,24.7,30.20,NW,315,0.3,1.0,52,0.00,,---,0.00,VWS V14.01,2013-03-28 02:54:00,
2013-03-27 22:59:00,41.0,24.5,30.20,NW,315,0.7,6.2,52,0.00,,---,0.00,VWS V14.01,2013-03-28 02:59:00,
2013-03-27 23:04:00,40.8,24.3,30.20,NW,315,1.8,5.0,52,0.00,,---,0.00,VWS V14.01,2013-03-28 03:04:00,
2013-03-27 23:09:00,40.6,24.1,30.20,NW,315,2.6,4.0,52,0.00,,---,0.00,VWS V14.01,2013-03-28 03:09:00,
2013-03-27 23:14:00,40.3,24.3,30.20,North,0,0.7,2.2,53,0.00,,---,0.00,VWS V14.01,2013-03-28 03:14:00,
2013-03-27 23:19:00,39.9,24.0,30.20,North,0,0.0,1.0,53,0.00,,---,0.00,VWS V14.01,2013-03-28 03:19:00,
2013-03-27 23:24:00,39.7,23.8,30.19,North,0,0.0,0.5,53,0.00,,---,0.00,VWS V14.01,2013-03-28 03:24:00,
2013-03-27 23:29:00,39.4,23.5,30.19,NNW,338,0.0,0.5,53,0.00,,---,0.00,VWS V14.01,2013-03-28 03:29:00,
2013-03-27 23:34:00,38.8,23.9,30.19,NNW,338,0.0,1.0,55,0.00,,---,0.00,VWS V14.01,2013-03-28 03:34:00,
2013-03-27 23:39:00,38.7,23.8,30.19,NNW,338,0.3,1.0,55,0.00,,---,0.00,VWS V14.01,2013-03-28 03:39:00,
2013-03-27 23:44:00,38.3,23.4,30.19,NNW,338,0.3,0.5,55,0.00,,---,0.00,VWS V14.01,2013-03-28 03:44:00,
2013-03-27 23:49:00,38.1,23.2,30.19,NNW,338,0.0,1.0,55,0.00,,---,0.00,VWS V14.01,2013-03-28 03:49:00,
2013-03-27 23:54:00,37.9,23.5,30.19,NNW,338,0.0,0.0,56,0.00,,---,0.00,VWS V14.01,2013-03-28 03:54:00,
2013-03-27 23:59:00,37.8,23.4,30.19,NNW,338,0.0,0.0,56,0.00,,---,0.00,VWS V14.01,2013-03-28 03:59:00,